Time;durP1;ratioP1;P1;durP2;ratioP2;P2;SDS_P1;SDS_P2;PMS_P1;PMS_P2;Temp;Humidity;BMP_temperature;BMP_pressure;BME280_temperature;BME280_humidity;BME280_pressure;Samples;Min_cycle;Max_cycle;Signal;HPM_P1;HPM_P2
2022/04/29 00:00:55;;;;;;;14.97;8.20;;;9.10;99.90;;;;;;5038337;28;20703;-73
2022/04/29 00:03:22;;;;;;;13.50;7.93;;;9.00;99.90;;;;;;5056239;28;20560;-74
2022/04/29 00:05:49;;;;;;;15.47;8.13;;;9.00;99.90;;;;;;5038551;28;20195;-75
2022/04/29 00:08:16;;;;;;;13.60;8.00;;;9.00;99.90;;;;;;5038529;28;20194;-74
2022/04/29 00:10:44;;;;;;;14.37;7.97;;;9.00;99.90;;;;;;5038480;28;20195;-73
2022/04/29 00:13:13;;;;;;;15.83;8.00;;;9.00;99.90;;;;;;5038426;28;20607;-73
2022/04/29 00:15:41;;;;;;;16.17;8.03;;;9.00;99.90;;;;;;5038155;28;20209;-73
2022/04/29 00:18:08;;;;;;;12.00;7.50;;;9.00;99.90;;;;;;5038621;28;20553;-73
2022/04/29 00:20:35;;;;;;;13.67;7.33;;;9.00;99.90;;;;;;5038325;28;20199;-75
2022/04/29 00:23:02;;;;;;;12.60;7.13;;;9.00;99.90;;;;;;5038177;28;20203;-74
2022/04/29 00:25:29;;;;;;;12.50;7.03;;;9.00;99.90;;;;;;5038860;28;20215;-74
2022/04/29 00:27:57;;;;;;;13.80;7.27;;;8.90;99.90;;;;;;5047896;28;20257;-74
2022/04/29 00:30:23;;;;;;;11.97;7.63;;;9.00;99.90;;;;;;5037767;28;20556;-74
2022/04/29 00:32:50;;;;;;;14.17;7.73;;;9.00;99.90;;;;;;5038275;28;20195;-74
2022/04/29 00:35:17;;;;;;;10.83;7.00;;;9.00;99.90;;;;;;5037990;28;20195;-75
2022/04/29 00:37:55;;;;;;;12.13;7.37;;;9.00;99.90;;;;;;5038322;28;20569;-74
2022/04/29 00:40:25;;;;;;;16.73;7.53;;;9.00;99.90;;;;;;5037915;28;20214;-74
2022/04/29 00:42:52;;;;;;;18.40;7.60;;;9.00;99.90;;;;;;5037879;28;20194;-74
2022/04/29 00:45:20;;;;;;;13.33;7.23;;;8.90;99.90;;;;;;5037763;28;20230;-74
2022/04/29 00:47:48;;;;;;;12.90;7.47;;;8.90;99.90;;;;;;5037897;28;20198;-73
2022/04/29 00:50:19;;;;;;;13.47;7.00;;;8.90;99.90;;;;;;5055703;28;20186;-73
2022/04/29 00:52:50;;;;;;;13.17;7.60;;;8.90;99.90;;;;;;5037727;28;20205;-74
2022/04/29 00:55:17;;;;;;;15.13;7.27;;;9.00;99.90;;;;;;5037317;28;20219;-74
2022/04/29 00:58:02;;;;;;;12.53;7.70;;;9.00;99.90;;;;;;5054947;28;20195;-74
2022/04/29 01:00:29;;;;;;;13.37;7.30;;;9.00;99.90;;;;;;5037468;28;20199;-74
2022/04/29 01:02:57;;;;;;;14.00;7.23;;;8.90;99.90;;;;;;5037476;28;20226;-74
2022/04/29 01:05:25;;;;;;;11.77;7.40;;;8.80;99.90;;;;;;5037053;28;20217;-74
2022/04/29 01:07:53;;;;;;;15.17;7.27;;;8.90;99.90;;;;;;5037436;28;20210;-74
2022/04/29 01:10:22;;;;;;;12.53;7.30;;;8.90;99.90;;;;;;5037273;28;20206;-74
2022/04/29 01:12:56;;;;;;;13.30;7.40;;;8.80;99.90;;;;;;5037450;28;20636;-74
2022/04/29 01:15:24;;;;;;;13.47;7.40;;;8.80;99.90;;;;;;5037058;28;20198;-74
2022/04/29 01:18:00;;;;;;;13.67;7.57;;;8.80;99.90;;;;;;5020855;28;20198;-74
2022/04/29 01:20:32;;;;;;;12.43;7.10;;;8.80;99.90;;;;;;5037534;28;20216;-74
2022/04/29 01:23:07;;;;;;;13.13;7.30;;;8.80;99.90;;;;;;5037205;28;20649;-74
2022/04/29 01:25:34;;;;;;;12.77;7.50;;;8.80;99.90;;;;;;5054674;28;20226;-74
2022/04/29 01:28:01;;;;;;;12.67;7.40;;;8.90;99.90;;;;;;5037162;28;20198;-73
2022/04/29 01:30:28;;;;;;;13.80;7.33;;;8.80;99.90;;;;;;5037111;28;20199;-73
2022/04/29 01:32:56;;;;;;;15.03;7.70;;;8.70;99.90;;;;;;5036998;28;20206;-74
2022/04/29 01:35:23;;;;;;;13.70;7.63;;;8.60;99.90;;;;;;5036860;28;20187;-74
2022/04/29 01:37:50;;;;;;;13.53;7.33;;;8.60;99.90;;;;;;5036763;28;20199;-74
2022/04/29 01:40:17;;;;;;;12.30;7.23;;;8.50;99.90;;;;;;5036884;28;20297;-74
2022/04/29 01:42:44;;;;;;;13.90;7.67;;;8.50;99.90;;;;;;5037114;28;20206;-74
2022/04/29 01:45:12;;;;;;;14.80;7.00;;;8.50;99.90;;;;;;5036440;28;20227;-74
2022/04/29 01:47:39;;;;;;;12.77;7.20;;;8.50;99.90;;;;;;5036661;28;20199;-74
2022/04/29 01:50:06;;;;;;;12.53;7.03;;;8.50;99.90;;;;;;5020081;28;20640;-73
2022/04/29 01:52:33;;;;;;;14.73;7.63;;;8.50;99.90;;;;;;5036557;28;20237;-73
2022/04/29 01:55:00;;;;;;;14.63;7.43;;;8.40;99.90;;;;;;5036457;28;20574;-74
2022/04/29 01:57:26;;;;;;;15.17;7.90;;;8.40;99.90;;;;;;5036527;28;20211;-73
2022/04/29 01:59:53;;;;;;;12.40;7.53;;;8.40;99.90;;;;;;5036648;28;20194;-74
2022/04/29 02:02:22;;;;;;;11.80;7.20;;;8.30;99.90;;;;;;5035965;28;20237;-74
2022/04/29 02:04:49;;;;;;;11.20;7.10;;;8.30;99.90;;;;;;5036149;28;20649;-74
2022/04/29 02:07:16;;;;;;;10.90;6.50;;;8.30;99.90;;;;;;5036354;28;20641;-72
2022/04/29 02:09:44;;;;;;;14.60;7.00;;;8.30;99.90;;;;;;5018661;28;20203;-73
2022/04/29 02:12:11;;;;;;;14.13;6.97;;;8.30;99.90;;;;;;5036459;28;20565;-73
2022/04/29 02:14:42;;;;;;;11.77;6.80;;;8.30;99.90;;;;;;5036036;28;20289;-74
2022/04/29 02:17:10;;;;;;;13.23;7.20;;;8.30;99.90;;;;;;5036210;28;20217;-73
2022/04/29 02:19:38;;;;;;;11.67;7.33;;;8.30;99.90;;;;;;5036212;28;20198;-73
2022/04/29 02:22:08;;;;;;;12.10;7.20;;;8.30;99.90;;;;;;5054177;28;20213;-73
2022/04/29 02:24:35;;;;;;;12.70;7.20;;;8.20;99.90;;;;;;5035903;28;20211;-73
2022/04/29 02:27:04;;;;;;;11.93;7.10;;;8.20;99.90;;;;;;5035988;28;20670;-73
2022/04/29 02:29:31;;;;;;;14.43;7.60;;;8.20;99.90;;;;;;5035944;28;20202;-72
2022/04/29 02:31:58;;;;;;;12.87;7.10;;;8.30;99.90;;;;;;5035768;28;20234;-72
2022/04/29 02:34:25;;;;;;;12.10;7.27;;;8.20;99.90;;;;;;5035762;28;20600;-73
2022/04/29 02:36:53;;;;;;;11.90;7.60;;;8.20;99.90;;;;;;5053473;28;20579;-72
2022/04/29 02:39:21;;;;;;;12.97;7.27;;;8.20;99.90;;;;;;5053670;28;20187;-73
2022/04/29 02:41:48;;;;;;;13.47;6.97;;;8.20;99.90;;;;;;5053604;28;20214;-73
2022/04/29 02:44:15;;;;;;;13.60;7.20;;;8.20;99.90;;;;;;5035463;28;20213;-72
2022/04/29 02:49:29;;;;;;;13.53;7.33;;;8.10;99.90;;;;;;5053596;28;20201;-72
2022/04/29 02:51:55;;;;;;;11.43;6.97;;;8.10;99.90;;;;;;5053407;28;20274;-73
2022/04/29 02:54:23;;;;;;;16.00;6.90;;;8.00;99.90;;;;;;5035343;28;20215;-73
2022/04/29 02:56:50;;;;;;;12.80;7.70;;;8.00;99.90;;;;;;5035468;28;20226;-72
2022/04/29 02:59:19;;;;;;;10.73;7.20;;;8.00;99.90;;;;;;5035711;28;20205;-73
2022/04/29 03:01:46;;;;;;;11.57;7.20;;;8.00;99.90;;;;;;5053148;28;20305;-73
2022/04/29 03:04:14;;;;;;;11.43;7.20;;;8.00;99.90;;;;;;5035509;28;20348;-74
2022/04/29 03:06:41;;;;;;;13.57;7.77;;;8.00;99.90;;;;;;5035257;28;20289;-73
2022/04/29 03:09:08;;;;;;;12.93;7.63;;;7.90;99.90;;;;;;5035337;28;20199;-74
2022/04/29 03:11:35;;;;;;;13.17;7.90;;;7.80;99.90;;;;;;5044167;28;20209;-72
2022/04/29 03:14:02;;;;;;;16.10;8.13;;;7.80;99.90;;;;;;5055304;28;20538;-72
2022/04/29 03:16:29;;;;;;;11.70;7.33;;;7.80;99.90;;;;;;5035187;28;20194;-73
2022/04/29 03:18:56;;;;;;;13.67;7.60;;;7.80;99.90;;;;;;5035286;28;20562;-75
2022/04/29 03:21:24;;;;;;;10.83;6.83;;;7.80;99.90;;;;;;5037726;28;20202;-72
2022/04/29 03:23:51;;;;;;;14.73;7.57;;;7.80;99.90;;;;;;5039374;28;20198;-74
2022/04/29 03:26:18;;;;;;;13.33;7.00;;;7.90;99.90;;;;;;5038938;28;20351;-72
2022/04/29 03:28:45;;;;;;;14.77;7.47;;;8.00;99.90;;;;;;5039324;28;20195;-73
2022/04/29 03:31:11;;;;;;;12.70;6.93;;;8.10;99.90;;;;;;5039184;28;20277;-73
2022/04/29 03:33:38;;;;;;;11.77;6.90;;;8.10;99.90;;;;;;5039324;28;20182;-74
2022/04/29 03:36:06;;;;;;;11.80;6.83;;;8.10;99.90;;;;;;5039280;28;20199;-74
2022/04/29 03:38:35;;;;;;;10.83;7.10;;;8.20;99.90;;;;;;5057228;28;20294;-73
2022/04/29 03:41:02;;;;;;;12.00;6.77;;;8.20;99.90;;;;;;5039037;28;20195;-74
2022/04/29 03:43:29;;;;;;;11.23;6.67;;;8.20;99.90;;;;;;5057069;28;20225;-73
2022/04/29 03:45:56;;;;;;;10.63;6.80;;;8.20;99.90;;;;;;5038870;28;20228;-74
2022/04/29 03:48:23;;;;;;;12.27;7.20;;;8.20;99.90;;;;;;5038701;28;20230;-74
2022/04/29 03:50:50;;;;;;;13.30;7.17;;;8.30;99.90;;;;;;5056898;28;20193;-74
2022/04/29 03:53:17;;;;;;;12.50;7.63;;;8.30;99.90;;;;;;5038764;28;20209;-74
2022/04/29 03:55:44;;;;;;;12.73;7.43;;;8.30;99.90;;;;;;5038503;28;20222;-73
2022/04/29 03:58:11;;;;;;;13.87;8.00;;;8.30;99.90;;;;;;5038655;28;20194;-74
2022/04/29 04:00:37;;;;;;;11.87;7.90;;;8.20;99.90;;;;;;5038714;28;20559;-74
2022/04/29 04:03:07;;;;;;;13.70;8.07;;;8.20;99.90;;;;;;5038627;28;20204;-73
2022/04/29 04:05:34;;;;;;;12.97;8.00;;;8.30;99.90;;;;;;5038855;28;20222;-74
2022/04/29 04:08:01;;;;;;;15.53;8.27;;;8.20;99.90;;;;;;5049601;28;20195;-73
2022/04/29 04:10:28;;;;;;;14.10;8.13;;;8.30;99.90;;;;;;5041375;28;20217;-75
2022/04/29 04:12:55;;;;;;;13.60;8.43;;;8.30;99.90;;;;;;5064437;28;20528;-74
2022/04/29 04:15:25;;;;;;;13.07;8.20;;;8.30;99.90;;;;;;5038118;28;20209;-74
2022/04/29 04:17:52;;;;;;;14.17;7.60;;;8.30;99.90;;;;;;5038527;28;20199;-74
2022/04/29 04:20:19;;;;;;;14.73;7.90;;;8.40;99.90;;;;;;5038409;28;20552;-73
2022/04/29 04:22:45;;;;;;;12.47;7.60;;;8.40;99.90;;;;;;5038148;28;20223;-74
2022/04/29 04:25:14;;;;;;;14.77;7.50;;;8.30;99.90;;;;;;5021375;28;20215;-73
2022/04/29 04:27:41;;;;;;;13.83;7.57;;;8.40;99.90;;;;;;5038265;28;20198;-73
2022/04/29 04:30:09;;;;;;;15.57;7.20;;;8.40;99.90;;;;;;5038377;28;20218;-73
2022/04/29 04:32:38;;;;;;;13.93;7.23;;;8.40;99.90;;;;;;5054744;28;20190;-73
2022/04/29 04:35:06;;;;;;;15.20;7.33;;;8.40;99.90;;;;;;5038016;28;20207;-74
2022/04/29 04:37:34;;;;;;;13.73;7.90;;;8.30;99.90;;;;;;5056079;28;20635;-73
2022/04/29 04:40:03;;;;;;;14.47;7.60;;;8.30;99.90;;;;;;5037827;28;20203;-72
2022/04/29 04:42:30;;;;;;;11.83;7.10;;;8.30;99.90;;;;;;5037787;28;20202;-74
2022/04/29 04:44:57;;;;;;;16.03;7.67;;;8.40;99.90;;;;;;5037909;28;20210;-73
2022/04/29 04:47:23;;;;;;;13.90;7.07;;;8.30;99.90;;;;;;5037922;28;20222;-73
2022/04/29 04:49:50;;;;;;;13.13;7.37;;;8.30;99.90;;;;;;5037872;28;20207;-73
2022/04/29 04:52:17;;;;;;;13.10;7.63;;;8.40;99.90;;;;;;5037728;28;20612;-74
2022/04/29 04:54:44;;;;;;;14.70;7.13;;;8.40;99.90;;;;;;5037567;28;20215;-74
2022/04/29 04:57:11;;;;;;;12.27;7.77;;;8.50;99.90;;;;;;5037591;28;20644;-73
2022/04/29 04:59:38;;;;;;;13.47;7.80;;;8.50;99.90;;;;;;5037544;28;20233;-74
2022/04/29 05:02:05;;;;;;;15.40;7.90;;;8.50;99.90;;;;;;5037438;28;20237;-72
2022/04/29 05:04:32;;;;;;;14.80;8.07;;;8.60;99.90;;;;;;5037264;28;20706;-73
2022/04/29 05:06:59;;;;;;;10.97;7.27;;;8.60;99.90;;;;;;5037510;28;20558;-73
2022/04/29 05:09:26;;;;;;;13.40;7.60;;;8.70;99.90;;;;;;5037622;28;20209;-73
2022/04/29 05:11:53;;;;;;;11.77;7.80;;;8.80;99.90;;;;;;5047815;28;20575;-73
2022/04/29 05:14:32;;;;;;;15.53;7.67;;;8.80;99.90;;;;;;5053614;28;20198;-73
2022/04/29 05:16:59;;;;;;;11.97;7.60;;;8.80;99.90;;;;;;5037137;28;20198;-73
2022/04/29 05:19:26;;;;;;;14.67;8.03;;;8.90;99.90;;;;;;5037169;28;20191;-73
2022/04/29 05:21:52;;;;;;;14.50;8.63;;;8.90;99.90;;;;;;5036901;28;20220;-73
2022/04/29 05:24:19;;;;;;;12.97;8.00;;;9.00;99.90;;;;;;5036898;28;20198;-74
2022/04/29 05:26:53;;;;;;;13.67;8.80;;;9.10;99.90;;;;;;5021412;28;20235;-74
2022/04/29 05:29:20;;;;;;;14.73;8.13;;;9.10;99.90;;;;;;5037102;28;20213;-75
2022/04/29 05:31:47;;;;;;;16.73;8.70;;;9.10;99.90;;;;;;5036472;28;20202;-74
2022/04/29 05:34:15;;;;;;;15.13;8.27;;;9.20;99.90;;;;;;5036725;28;20227;-73
2022/04/29 05:36:43;;;;;;;17.03;8.97;;;9.30;99.90;;;;;;5036363;28;20202;-72
2022/04/29 05:42:14;;;;;;;14.40;8.70;;;9.30;99.90;;;;;;5036735;28;20202;-72
2022/04/29 05:44:42;;;;;;;16.33;8.53;;;9.30;99.90;;;;;;5022409;28;20222;-73
2022/04/29 05:47:10;;;;;;;14.23;9.07;;;9.40;99.90;;;;;;5036179;28;20268;-72
2022/04/29 05:49:38;;;;;;;16.93;9.17;;;9.30;99.90;;;;;;5036509;28;20206;-73
2022/04/29 05:52:07;;;;;;;16.70;9.13;;;9.40;99.90;;;;;;5036404;28;20198;-72
2022/04/29 05:54:34;;;;;;;16.63;9.60;;;9.50;99.90;;;;;;5036152;28;20234;-72
2022/04/29 05:57:09;;;;;;;16.00;9.67;;;9.50;99.90;;;;;;5020847;28;20194;-73
2022/04/29 05:59:36;;;;;;;19.20;8.90;;;9.60;99.90;;;;;;5053945;28;20202;-73
2022/04/29 06:02:04;;;;;;;16.10;9.67;;;9.60;99.90;;;;;;5019571;28;20234;-73
2022/04/29 06:04:31;;;;;;;17.43;9.00;;;9.80;99.90;;;;;;5044942;28;20194;-72
2022/04/29 06:06:58;;;;;;;17.57;9.50;;;9.80;99.90;;;;;;5037683;28;20265;-71
2022/04/29 06:09:25;;;;;;;19.93;10.63;;;10.00;99.90;;;;;;5036254;28;20191;-71
2022/04/29 06:11:53;;;;;;;17.60;10.73;;;10.20;99.90;;;;;;5036186;28;20252;-72
2022/04/29 06:14:26;;;;;;;18.13;10.93;;;10.40;99.90;;;;;;5035685;28;20590;-72
2022/04/29 06:16:53;;;;;;;20.93;10.23;;;10.60;99.90;;;;;;5035838;28;20223;-71
2022/04/29 06:19:20;;;;;;;18.60;10.80;;;10.80;99.90;;;;;;5035881;28;20305;-71
2022/04/29 06:21:47;;;;;;;22.70;10.47;;;11.00;99.90;;;;;;5036095;28;20191;-71
2022/04/29 06:24:14;;;;;;;19.20;10.73;;;11.20;99.90;;;;;;5035594;28;20198;-73
2022/04/29 06:26:40;;;;;;;18.10;10.50;;;11.40;99.90;;;;;;5053647;28;20229;-72
2022/04/29 06:29:07;;;;;;;18.63;10.53;;;11.50;99.90;;;;;;5035990;28;20195;-72
2022/04/29 06:31:34;;;;;;;20.10;11.13;;;11.70;99.90;;;;;;5035825;28;20195;-72
2022/04/29 06:34:01;;;;;;;21.40;12.67;;;11.90;99.90;;;;;;5053403;28;20195;-71
2022/04/29 06:36:28;;;;;;;26.07;13.33;;;12.10;99.90;;;;;;5035685;28;20306;-72
2022/04/29 06:38:55;;;;;;;28.17;12.87;;;12.30;99.90;;;;;;5035566;28;20670;-71
2022/04/29 06:41:21;;;;;;;26.77;14.00;;;12.40;99.90;;;;;;5035918;28;20195;-73
2022/04/29 06:43:48;;;;;;;22.10;11.37;;;12.60;99.90;;;;;;5035516;28;20198;-72
2022/04/29 06:46:17;;;;;;;21.90;11.50;;;12.60;99.90;;;;;;5035146;28;20226;-71
2022/04/29 06:48:45;;;;;;;18.47;11.10;;;12.70;99.90;;;;;;5035575;28;20195;-71
2022/04/29 06:51:12;;;;;;;19.27;10.83;;;12.60;99.90;;;;;;5035471;28;20672;-71
2022/04/29 06:53:41;;;;;;;19.10;11.07;;;12.60;99.90;;;;;;5035507;28;20225;-71
2022/04/29 06:56:09;;;;;;;19.83;11.17;;;12.60;99.90;;;;;;5034412;28;20270;-71
2022/04/29 06:58:36;;;;;;;17.67;10.77;;;12.60;99.90;;;;;;5053235;28;20270;-72
2022/04/29 07:01:03;;;;;;;15.77;10.03;;;12.70;99.90;;;;;;5034989;28;20735;-72
2022/04/29 07:03:30;;;;;;;17.63;10.83;;;12.70;99.90;;;;;;5035275;28;20614;-72
2022/04/29 07:06:00;;;;;;;18.53;9.90;;;12.70;99.90;;;;;;5035192;28;20215;-71
2022/04/29 07:08:30;;;;;;;20.70;11.33;;;12.80;99.90;;;;;;5053102;28;20645;-72
2022/04/29 07:10:57;;;;;;;22.83;11.50;;;12.80;99.90;;;;;;5035398;28;20203;-71
2022/04/29 07:13:24;;;;;;;22.43;12.30;;;12.80;99.90;;;;;;5035208;28;20203;-71
2022/04/29 07:15:51;;;;;;;22.03;12.07;;;12.90;99.90;;;;;;5035108;28;20194;-71
2022/04/29 07:18:18;;;;;;;21.67;11.93;;;13.10;99.90;;;;;;5035169;28;20191;-72
2022/04/29 07:20:45;;;;;;;18.87;11.93;;;13.20;99.90;;;;;;5053183;28;20218;-72
2022/04/29 07:23:12;;;;;;;24.80;12.53;;;13.40;99.90;;;;;;5018641;28;20297;-70
2022/04/29 07:25:38;;;;;;;25.53;12.50;;;13.40;99.90;;;;;;5034220;28;20730;-73
2022/04/29 07:28:06;;;;;;;19.40;11.50;;;13.50;99.90;;;;;;5072739;28;20197;-72
2022/04/29 07:30:33;;;;;;;20.47;11.50;;;13.60;99.90;;;;;;5054964;28;20293;-73
2022/04/29 07:32:59;;;;;;;19.63;11.77;;;13.60;99.90;;;;;;5054643;28;20306;-71
2022/04/29 07:43:44;;;;;;;20.07;11.93;;;13.60;99.90;;;;;;5074733;28;20204;-70
2022/04/29 07:46:11;;;;;;;20.27;11.80;;;13.60;99.90;;;;;;5092689;28;20571;-71
2022/04/29 07:48:39;;;;;;;24.70;11.70;;;13.60;99.90;;;;;;5074967;28;20247;-70
2022/04/29 07:51:06;;;;;;;21.83;11.83;;;13.60;99.90;;;;;;5092749;28;20185;-71
2022/04/29 07:53:34;;;;;;;21.43;11.93;;;13.60;99.90;;;;;;5074741;28;20197;-70
2022/04/29 07:56:02;;;;;;;21.80;12.00;;;13.50;99.90;;;;;;5068736;28;20561;-71
2022/04/29 07:58:28;;;;;;;19.20;11.23;;;13.50;99.90;;;;;;5054378;28;20213;-70
2022/04/29 08:00:55;;;;;;;17.80;11.53;;;13.50;99.90;;;;;;5072394;28;20226;-71
2022/04/29 08:03:33;;;;;;;23.07;11.73;;;13.50;99.90;;;;;;5054297;28;20218;-71
2022/04/29 08:06:02;;;;;;;27.70;12.50;;;13.50;99.90;;;;;;5054185;28;20221;-71
2022/04/29 08:08:29;;;;;;;48.70;28.63;;;13.70;99.90;;;;;;5058265;28;20185;-72
2022/04/29 08:10:56;;;;;;;38.23;22.83;;;14.80;99.90;;;;;;5058208;28;20285;-72
2022/04/29 08:13:24;;;;;;;22.70;13.07;;;15.80;99.90;;;;;;5058183;28;20194;-73
2022/04/29 08:15:51;;;;;;;20.77;11.93;;;17.00;99.90;;;;;;5058068;28;20277;-72
2022/04/29 08:18:19;;;;;;;18.50;11.63;;;17.80;99.90;;;;;;5058016;28;20248;-72
2022/04/29 08:20:46;;;;;;;21.87;11.33;;;18.10;99.90;;;;;;5058212;28;20202;-72
2022/04/29 08:23:13;;;;;;;17.20;10.37;;;18.30;99.90;;;;;;5058219;28;20297;-72
2022/04/29 08:25:40;;;;;;;16.80;10.43;;;18.70;99.90;;;;;;5060074;28;20260;-71
2022/04/29 08:28:07;;;;;;;18.73;10.30;;;19.30;99.90;;;;;;5077533;28;20189;-71
2022/04/29 08:30:34;;;;;;;14.03;9.87;;;19.90;99.20;;;;;;5077588;28;20228;-71
2022/04/29 08:33:01;;;;;;;18.60;10.10;;;20.20;95.00;;;;;;5077635;28;20230;-71
2022/04/29 08:35:29;;;;;;;19.30;10.07;;;19.70;93.60;;;;;;5077820;28;20205;-71
2022/04/29 08:37:57;;;;;;;17.10;9.90;;;19.30;93.90;;;;;;5077824;28;20653;-71
2022/04/29 08:40:25;;;;;;;20.43;10.50;;;19.30;94.20;;;;;;5077547;28;20199;-71
2022/04/29 08:42:54;;;;;;;18.63;10.17;;;18.90;94.00;;;;;;5077626;28;20197;-71
2022/04/29 08:45:21;;;;;;;17.43;10.57;;;18.30;95.00;;;;;;5077463;28;20216;-73
2022/04/29 08:47:49;;;;;;;17.10;10.33;;;17.90;96.20;;;;;;5077253;28;20200;-72
2022/04/29 08:50:18;;;;;;;20.13;10.30;;;17.90;98.00;;;;;;5095518;28;20266;-72
2022/04/29 08:52:46;;;;;;;14.00;9.67;;;18.20;98.30;;;;;;5077508;28;20190;-72
2022/04/29 09:00:46;;;;;;;15.97;9.40;;;19.20;94.50;;;;;;5076948;28;20193;-70
2022/04/29 09:03:18;;;;;;;15.90;8.43;;;19.40;94.20;;;;;;5077069;28;20205;-73
2022/04/29 09:05:46;;;;;;;17.60;10.03;;;19.80;92.70;;;;;;5076951;28;20213;-70
2022/04/29 09:08:16;;;;;;;20.40;9.83;;;20.10;91.60;;;;;;5077338;28;20300;-71
2022/04/29 09:10:58;;;;;;;15.83;9.63;;;20.60;90.60;;;;;;5077105;28;20323;-71
2022/04/29 09:13:35;;;;;;;15.97;9.17;;;20.90;86.30;;;;;;5076639;28;20246;-72
2022/04/29 09:16:10;;;;;;;17.20;9.50;;;20.80;84.80;;;;;;5076714;28;20250;-71
2022/04/29 09:18:43;;;;;;;15.80;9.17;;;20.90;84.60;;;;;;5076409;28;20287;-71
2022/04/29 09:21:19;;;;;;;14.93;9.07;;;20.90;80.90;;;;;;5076562;28;20588;-72
2022/04/29 09:23:57;;;;;;;15.83;9.13;;;21.00;80.30;;;;;;5094870;28;20558;-72
2022/04/29 09:26:25;;;;;;;15.70;8.67;;;21.30;81.40;;;;;;5076103;28;20304;-72
2022/04/29 09:29:16;;;;;;;16.33;9.43;;;21.40;79.50;;;;;;5076384;28;20276;-72
2022/04/29 09:31:58;;;;;;;17.00;9.20;;;21.50;75.50;;;;;;4992665;28;20667;-72
2022/04/29 09:34:43;;;;;;;15.57;9.07;;;21.10;75.00;;;;;;4992669;28;20240;-71
2022/04/29 09:37:17;;;;;;;16.67;9.70;;;20.40;74.30;;;;;;4976353;28;20211;-70
2022/04/29 09:39:57;;;;;;;14.87;9.20;;;19.50;78.70;;;;;;4976531;28;20217;-72
2022/04/29 09:42:39;;;;;;;13.90;8.90;;;19.20;81.40;;;;;;4976305;28;20193;-72
2022/04/29 09:45:23;;;;;;;14.57;8.57;;;19.00;81.90;;;;;;4976106;28;20295;-71
2022/04/29 09:47:58;;;;;;;13.20;8.40;;;19.00;81.90;;;;;;4975930;28;20228;-72
2022/04/29 09:50:50;;;;;;;11.07;7.70;;;18.80;80.10;;;;;;4976623;28;20300;-70
2022/04/29 09:53:21;;;;;;;13.83;8.00;;;18.10;78.80;;;;;;4976605;28;20209;-71
2022/04/29 09:56:12;;;;;;;14.07;7.47;;;17.80;82.00;;;;;;4976342;28;20332;-71
2022/04/29 09:58:40;;;;;;;12.33;8.20;;;17.60;84.20;;;;;;4915895;29;20261;-71
2022/04/29 10:01:09;;;;;;;11.07;8.23;;;17.40;84.80;;;;;;4897097;29;20314;-70
2022/04/29 10:03:37;;;;;;;12.63;8.93;;;17.20;86.50;;;;;;4880953;29;20228;-71
2022/04/29 10:06:08;;;;;;;16.77;9.50;;;16.90;87.50;;;;;;4896488;29;20217;-70
2022/04/29 10:08:36;;;;;;;15.93;8.70;;;16.60;87.20;;;;;;4915727;28;20213;-70
2022/04/29 10:11:05;;;;;;;14.87;8.83;;;16.50;88.90;;;;;;4937048;29;20688;-70
2022/04/29 10:13:33;;;;;;;12.20;8.53;;;16.60;91.20;;;;;;4937183;29;20238;-71
2022/04/29 10:16:01;;;;;;;14.00;8.80;;;16.60;91.20;;;;;;4937230;29;20198;-70
2022/04/29 10:21:20;;;;;;;12.87;8.57;;;16.70;91.90;;;;;;4937344;29;20210;-70
2022/04/29 10:23:50;;;;;;;12.23;8.67;;;16.80;93.10;;;;;;4937557;29;20219;-69
2022/04/29 10:26:21;;;;;;;14.43;8.70;;;16.90;93.10;;;;;;4936993;29;20228;-69
2022/04/29 10:28:49;;;;;;;12.33;7.90;;;16.80;92.50;;;;;;4936981;29;20358;-70
2022/04/29 10:31:21;;;;;;;11.60;7.40;;;16.70;93.00;;;;;;4936399;29;20649;-69
2022/04/29 10:33:49;;;;;;;11.73;6.50;;;16.40;92.90;;;;;;4952724;29;20622;-70
2022/04/29 10:36:16;;;;;;;11.77;7.43;;;16.30;93.70;;;;;;4980204;28;20287;-70
2022/04/29 10:38:46;;;;;;;12.90;7.53;;;16.10;94.00;;;;;;5030480;28;20293;-65
2022/04/29 10:41:20;;;;;;;13.57;7.87;;;16.00;96.60;;;;;;5035388;28;20809;-70
2022/04/29 10:43:50;;;;;;;11.77;8.10;;;16.00;96.90;;;;;;5031239;28;20222;-68
2022/04/29 10:46:22;;;;;;;11.50;8.07;;;15.80;96.90;;;;;;5014809;28;20603;-67
2022/04/29 10:48:53;;;;;;;16.23;8.83;;;15.80;98.80;;;;;;5015517;28;20207;-69
2022/04/29 10:51:28;;;;;;;14.97;8.23;;;15.80;99.90;;;;;;5053329;28;20191;-70
2022/04/29 10:53:57;;;;;;;11.83;7.50;;;15.80;99.90;;;;;;5053065;28;20280;-69
2022/04/29 10:56:30;;;;;;;12.67;7.33;;;15.80;99.90;;;;;;5035202;28;20313;-69
2022/04/29 10:59:09;;;;;;;12.20;7.20;;;15.80;99.90;;;;;;5035627;28;20195;-69
2022/04/29 11:01:38;;;;;;;12.90;7.47;;;15.90;99.90;;;;;;5035174;28;20226;-69
2022/04/29 11:04:15;;;;;;;12.53;7.73;;;16.10;99.90;;;;;;5035125;28;20202;-69
2022/04/29 11:06:47;;;;;;;12.43;7.57;;;16.20;99.90;;;;;;5035215;28;20241;-69
2022/04/29 11:09:28;;;;;;;13.97;7.80;;;16.30;99.90;;;;;;5035286;28;20277;-70
2022/04/29 11:11:57;;;;;;;14.97;8.00;;;16.70;99.90;;;;;;5053358;28;20596;-70
2022/04/29 11:14:25;;;;;;;14.07;7.40;;;17.20;99.90;;;;;;5035148;28;20195;-70
2022/04/29 11:16:55;;;;;;;13.27;7.53;;;18.10;98.80;;;;;;5034981;28;20213;-72
2022/04/29 11:19:28;;;;;;;10.93;6.73;;;19.00;95.30;;;;;;5012264;28;20204;-68
2022/04/29 11:24:47;;;;;;;8.03;5.60;;;19.50;90.40;;;;;;5032550;28;20196;-68
2022/04/29 11:27:23;;;;;;;11.33;5.90;;;19.70;89.60;;;;;;5014713;28;20215;-67
2022/04/29 11:29:53;;;;;;;10.13;5.67;;;19.90;85.80;;;;;;5015144;28;20222;-67
2022/04/29 11:32:26;;;;;;;10.17;5.80;;;20.50;82.40;;;;;;5014636;28;20274;-66
2022/04/29 11:34:58;;;;;;;9.23;6.70;;;20.50;75.60;;;;;;5014565;28;20196;-67
2022/04/29 11:37:27;;;;;;;9.53;5.80;;;20.20;73.70;;;;;;5052221;28;20225;-69
2022/04/29 11:40:02;;;;;;;7.07;5.57;;;20.00;74.80;;;;;;5034487;28;20229;-70
2022/04/29 11:42:30;;;;;;;8.17;5.60;;;19.70;75.60;;;;;;5037221;28;20272;-68
2022/04/29 11:45:10;;;;;;;8.17;5.13;;;19.50;75.50;;;;;;5023175;28;20555;-67
2022/04/29 11:47:37;;;;;;;10.87;5.73;;;19.30;75.30;;;;;;5033795;28;20692;-68
2022/04/29 11:50:05;;;;;;;8.60;5.93;;;18.90;76.00;;;;;;5018566;28;20187;-70
2022/04/29 11:52:33;;;;;;;9.60;6.00;;;18.70;76.20;;;;;;5018535;28;20282;-69
2022/04/29 11:55:01;;;;;;;9.50;6.43;;;18.70;77.00;;;;;;5018292;28;20227;-68
2022/04/29 11:57:30;;;;;;;9.77;6.33;;;18.80;77.50;;;;;;5018487;28;20246;-67
2022/04/29 11:59:58;;;;;;;11.00;6.63;;;19.10;77.20;;;;;;5018556;28;20257;-67
2022/04/29 12:02:26;;;;;;;11.47;6.50;;;19.50;76.20;;;;;;5049449;28;20326;-67
2022/04/29 12:05:04;;;;;;;8.20;5.67;;;20.10;73.10;;;;;;5055874;28;20520;-68
2022/04/29 12:07:40;;;;;;;7.73;5.40;;;20.70;72.90;;;;;;5037716;28;20210;-68
2022/04/29 12:10:18;;;;;;;8.23;5.10;;;20.60;69.30;;;;;;5037955;28;20241;-70
2022/04/29 12:12:48;;;;;;;9.37;5.17;;;20.30;69.70;;;;;;5056021;28;20194;-69
2022/04/29 12:15:19;;;;;;;7.23;5.13;;;19.80;70.40;;;;;;5055786;28;20187;-69
2022/04/29 12:17:48;;;;;;;8.17;6.30;;;19.50;71.90;;;;;;5060645;28;20233;-68
2022/04/29 12:20:20;;;;;;;9.17;6.03;;;19.20;72.50;;;;;;5058064;28;20199;-67
2022/04/29 12:22:50;;;;;;;8.37;6.57;;;19.00;73.80;;;;;;5057692;28;20706;-69
2022/04/29 12:25:27;;;;;;;8.60;5.80;;;18.80;75.30;;;;;;5075346;28;20539;-69
2022/04/29 12:28:13;;;;;;;8.20;5.80;;;19.30;76.50;;;;;;5057471;28;20800;-69
2022/04/29 12:37:08;;;;;;;10.33;6.33;;;22.20;67.70;;;;;;4977543;28;20295;-72
2022/04/29 12:39:40;;;;;;;7.97;6.00;;;22.90;63.60;;;;;;4993897;28;20236;-67
2022/04/29 12:42:09;;;;;;;7.97;5.80;;;23.50;60.40;;;;;;4993990;28;20267;-67
2022/04/29 12:45:09;;;;;;;8.23;6.30;;;23.60;58.70;;;;;;4977342;28;20213;-67
2022/04/29 12:47:50;;;;;;;10.23;6.68;;;23.60;59.10;;;;;;4977102;28;20686;-66
2022/04/29 12:50:31;;;;;;;10.73;7.00;;;23.30;58.10;;;;;;4977441;28;20200;-67
2022/04/29 12:53:02;;;;;;;11.65;6.70;;;22.80;59.20;;;;;;4992755;28;20287;-68
2022/04/29 12:55:36;;;;;;;11.88;6.82;;;22.40;60.60;;;;;;4993282;28;20256;-68
2022/04/29 12:58:14;;;;;;;14.80;8.60;;;22.60;60.90;;;;;;4977478;28;20200;-69
2022/04/29 13:01:06;;;;;;;12.88;7.70;;;22.50;60.50;;;;;;4993372;28;20220;-68
2022/04/29 13:03:34;;;;;;;10.80;7.75;;;22.20;60.00;;;;;;4976830;28;20762;-67
2022/04/29 13:06:02;;;;;;;11.13;7.37;;;22.00;61.70;;;;;;4977066;28;20189;-66
2022/04/29 13:08:30;;;;;;;12.13;7.27;;;22.30;60.60;;;;;;4977143;28;20750;-67
2022/04/29 13:10:59;;;;;;;11.73;7.00;;;22.50;59.20;;;;;;4993410;28;20718;-69
2022/04/29 13:13:28;;;;;;;8.70;7.30;;;22.20;58.10;;;;;;5024328;28;20206;-70
2022/04/29 13:15:56;;;;;;;13.68;7.85;;;21.70;59.20;;;;;;5056712;28;20281;-68
2022/04/29 13:18:23;;;;;;;11.67;7.13;;;21.20;60.10;;;;;;5056364;28;20719;-68
2022/04/29 13:20:52;;;;;;;16.00;8.00;;;20.70;61.60;;;;;;5056582;28;20206;-68
2022/04/29 13:23:19;;;;;;;11.40;7.27;;;20.40;61.60;;;;;;5056506;28;20198;-68